createdAt,value
2018-03-20T00:00:50.874Z,9.60
2018-03-20T00:03:22.374Z,15.13
2018-03-20T00:05:53.153Z,10.75
2018-03-20T00:08:23.656Z,8.63
2018-03-20T00:10:55.611Z,8.23
2018-03-20T00:13:27.546Z,9.00
2018-03-20T00:15:58.045Z,8.88
2018-03-20T00:18:29.568Z,11.48
2018-03-20T00:21:01.163Z,12.05
2018-03-20T00:23:32.843Z,10.65
2018-03-20T00:26:05.067Z,14.07
2018-03-20T00:28:36.260Z,9.32
2018-03-20T00:31:08.410Z,13.68
2018-03-20T00:33:39.980Z,12.27
2018-03-20T00:36:17.034Z,9.90
2018-03-20T00:38:55.151Z,9.43
2018-03-20T00:41:25.921Z,9.48
2018-03-20T00:43:57.431Z,9.48
2018-03-20T00:46:30.411Z,9.73
2018-03-20T00:49:03.881Z,10.98
2018-03-20T00:51:34.204Z,12.02
2018-03-20T00:54:06.577Z,9.60
2018-03-20T00:56:37.174Z,10.95
2018-03-20T00:59:07.562Z,9.50
2018-03-20T01:01:38.906Z,11.52
2018-03-20T01:04:11.086Z,10.40
2018-03-20T01:06:41.400Z,9.75
2018-03-20T01:09:12.794Z,8.30
2018-03-20T01:11:44.214Z,10.63
2018-03-20T01:14:30.739Z,7.95
2018-03-20T01:17:03.700Z,7.20
2018-03-20T01:19:34.346Z,7.90
2018-03-20T01:22:04.782Z,9.07
2018-03-20T01:24:34.881Z,8.20
2018-03-20T01:27:05.581Z,7.28
2018-03-20T01:29:36.910Z,8.00
2018-03-20T01:32:07.361Z,8.38
2018-03-20T01:34:39.050Z,7.32
2018-03-20T01:37:11.381Z,7.22
2018-03-20T01:39:42.058Z,7.90
2018-03-20T01:42:12.590Z,7.40
2018-03-20T01:44:44.800Z,7.15
2018-03-20T01:47:18.940Z,8.15
2018-03-20T01:49:53.170Z,6.75
2018-03-20T01:52:27.964Z,8.75
2018-03-20T01:55:01.827Z,8.40
2018-03-20T01:57:34.659Z,7.90
2018-03-20T02:00:05.893Z,8.27
2018-03-20T02:02:36.086Z,8.05
2018-03-20T02:05:06.183Z,7.72
2018-03-20T02:07:36.721Z,8.80
2018-03-20T02:10:06.751Z,8.98
2018-03-20T02:12:36.614Z,9.38
2018-03-20T02:15:06.635Z,8.32
2018-03-20T02:17:36.396Z,7.25
2018-03-20T02:20:09.935Z,9.00
2018-03-20T02:22:40.484Z,8.07
2018-03-20T02:25:11.134Z,10.02
2018-03-20T02:27:41.960Z,8.93
2018-03-20T02:30:12.291Z,9.00
2018-03-20T02:32:42.763Z,8.60
2018-03-20T02:35:12.537Z,8.05
2018-03-20T02:37:42.195Z,9.52
2018-03-20T02:40:13.137Z,8.52
2018-03-20T02:42:43.323Z,7.68
2018-03-20T02:45:13.552Z,9.38
2018-03-20T02:47:43.121Z,9.10
2018-03-20T02:50:13.349Z,8.60
2018-03-20T02:52:49.369Z,9.18
2018-03-20T02:55:19.556Z,8.90
2018-03-20T02:57:49.189Z,9.43
2018-03-20T03:00:19.008Z,9.63
2018-03-20T03:02:48.429Z,10.00
2018-03-20T03:05:18.991Z,8.50
2018-03-20T03:07:48.525Z,12.18
2018-03-20T03:10:18.596Z,12.13
2018-03-20T03:12:48.801Z,8.90
2018-03-20T03:15:19.157Z,9.77
2018-03-20T03:17:49.465Z,8.52
2018-03-20T03:20:19.727Z,10.88
2018-03-20T03:22:50.374Z,8.85
2018-03-20T03:25:20.352Z,11.57
2018-03-20T03:27:50.634Z,9.63
2018-03-20T03:30:20.196Z,9.50
2018-03-20T03:32:49.706Z,9.40
2018-03-20T03:35:19.524Z,10.07
2018-03-20T03:37:48.957Z,9.88
2018-03-20T03:40:18.448Z,10.48
2018-03-20T03:42:47.867Z,11.45
2018-03-20T03:45:17.487Z,10.15
2018-03-20T03:47:47.129Z,11.07
2018-03-20T03:50:16.901Z,10.55
2018-03-20T03:52:48.672Z,11.75
2018-03-20T03:55:23.791Z,10.85
2018-03-20T03:57:56.937Z,11.12
2018-03-20T04:00:29.002Z,9.73
2018-03-20T04:03:05.489Z,10.50
2018-03-20T04:05:35.025Z,10.18
2018-03-20T04:08:04.472Z,11.23
2018-03-20T04:10:33.905Z,10.35
2018-03-20T04:13:03.429Z,10.32
2018-03-20T04:15:32.833Z,10.45
2018-03-20T04:18:03.523Z,10.55
2018-03-20T04:20:33.410Z,8.65
2018-03-20T04:23:04.663Z,9.77
2018-03-20T04:25:34.295Z,10.27
2018-03-20T04:28:03.922Z,9.25
2018-03-20T04:30:33.313Z,9.18
2018-03-20T04:33:04.148Z,10.10
2018-03-20T04:35:33.710Z,11.23
2018-03-20T04:38:04.420Z,10.70
2018-03-20T04:40:34.091Z,8.75
2018-03-20T04:43:03.803Z,10.77
2018-03-20T04:45:33.577Z,10.70
2018-03-20T04:48:04.919Z,17.75
2018-03-20T04:50:35.289Z,9.90
2018-03-20T04:53:05.285Z,10.63
2018-03-20T04:55:35.872Z,10.85
2018-03-20T04:58:09.948Z,12.85
2018-03-20T05:00:39.844Z,10.77
2018-03-20T05:03:11.006Z,11.18
2018-03-20T05:05:41.556Z,10.35
2018-03-20T05:08:11.951Z,11.00
2018-03-20T05:10:42.085Z,11.48
2018-03-20T05:13:11.649Z,12.80
2018-03-20T05:15:41.520Z,11.70
2018-03-20T05:18:11.909Z,11.73
2018-03-20T05:20:42.962Z,10.82
2018-03-20T05:23:13.039Z,12.32
2018-03-20T05:25:43.005Z,12.88
2018-03-20T05:28:15.222Z,11.85
2018-03-20T05:30:45.585Z,13.07
2018-03-20T05:33:15.869Z,13.77
2018-03-20T05:35:45.432Z,11.77
2018-03-20T05:38:15.431Z,10.75
2018-03-20T05:40:46.027Z,12.55
2018-03-20T05:43:16.620Z,11.27
2018-03-20T05:45:46.935Z,12.02
2018-03-20T05:48:18.454Z,11.75
2018-03-20T05:50:48.572Z,9.95
2018-03-20T05:53:18.778Z,11.63
2018-03-20T05:55:49.258Z,11.48
2018-03-20T05:58:19.823Z,11.43
2018-03-20T06:00:49.613Z,12.07
2018-03-20T06:03:20.084Z,13.27
2018-03-20T06:05:51.210Z,11.30
2018-03-20T06:08:21.498Z,12.45
2018-03-20T06:10:51.491Z,11.95
2018-03-20T06:13:22.123Z,10.60
2018-03-20T06:15:52.479Z,14.00
2018-03-20T06:18:22.890Z,12.15
2018-03-20T06:20:53.373Z,15.27
2018-03-20T06:23:24.017Z,13.62
2018-03-20T06:25:56.789Z,12.90
2018-03-20T06:28:26.863Z,13.38
2018-03-20T06:33:41.370Z,13.85
2018-03-20T06:36:12.897Z,13.15
2018-03-20T06:38:43.685Z,12.40
2018-03-20T06:41:16.461Z,14.25
2018-03-20T06:44:16.017Z,14.07
2018-03-20T06:46:46.278Z,13.27
2018-03-20T06:49:17.964Z,15.23
2018-03-20T06:51:49.287Z,13.65
2018-03-20T06:54:21.235Z,14.13
2018-03-20T06:56:53.043Z,13.98
2018-03-20T06:59:23.597Z,13.90
2018-03-20T07:01:54.204Z,14.45
2018-03-20T07:04:25.178Z,14.32
2018-03-20T07:06:56.462Z,13.05
2018-03-20T07:09:27.310Z,15.43
2018-03-20T07:12:00.026Z,12.37
2018-03-20T07:14:30.510Z,14.95
2018-03-20T07:17:02.492Z,15.23
2018-03-20T07:19:32.771Z,14.55
2018-03-20T07:22:04.718Z,14.77
2018-03-20T07:24:35.591Z,14.63
2018-03-20T07:27:07.319Z,14.60
2018-03-20T07:29:37.990Z,14.90
2018-03-20T07:32:09.510Z,16.33
2018-03-20T07:34:45.936Z,17.65
2018-03-20T07:37:26.515Z,18.85
2018-03-20T07:39:57.866Z,18.02
2018-03-20T07:42:35.588Z,19.60
2018-03-20T07:45:12.890Z,20.30
2018-03-20T07:47:44.397Z,20.83
2018-03-20T07:50:15.473Z,21.87
2018-03-20T07:52:46.183Z,20.60
2018-03-20T07:55:17.254Z,18.58
2018-03-20T07:57:50.104Z,20.65
2018-03-20T08:00:22.481Z,20.35
2018-03-20T08:02:53.052Z,18.52
2018-03-20T08:05:24.304Z,21.27
2018-03-20T08:07:55.671Z,20.83
2018-03-20T08:10:26.272Z,20.35
2018-03-20T08:12:56.693Z,20.80
2018-03-20T08:15:27.320Z,22.48
2018-03-20T08:17:57.640Z,25.25
2018-03-20T08:20:28.120Z,20.20
2018-03-20T08:23:01.314Z,21.08
2018-03-20T08:25:32.888Z,24.02
2018-03-20T08:28:04.342Z,25.02
2018-03-20T08:30:35.121Z,20.90
2018-03-20T08:33:07.048Z,24.02
2018-03-20T08:35:37.601Z,23.48
2018-03-20T08:38:08.497Z,25.37
2018-03-20T08:40:38.810Z,27.48
2018-03-20T08:43:09.144Z,23.27
2018-03-20T08:45:40.036Z,23.50
2018-03-20T08:48:11.791Z,23.60
2018-03-20T08:50:43.912Z,27.55
2018-03-20T08:53:16.810Z,26.65
2018-03-20T08:55:48.105Z,28.83
2018-03-20T08:58:18.532Z,28.62
2018-03-20T09:00:48.686Z,30.52
2018-03-20T09:03:19.718Z,30.98
2018-03-20T09:05:51.994Z,31.87
2018-03-20T09:08:24.651Z,30.37
2018-03-20T09:10:58.876Z,30.83
2018-03-20T09:13:33.349Z,32.63
2018-03-20T09:16:05.399Z,30.48
2018-03-20T09:18:41.577Z,28.52
2018-03-20T09:21:12.156Z,32.10
2018-03-20T09:23:42.257Z,28.90
2018-03-20T09:26:13.217Z,28.58
2018-03-20T09:28:44.140Z,28.95
2018-03-20T09:31:14.784Z,26.97
2018-03-20T09:33:44.931Z,26.03
2018-03-20T09:36:15.177Z,28.80
2018-03-20T09:38:45.892Z,26.20
2018-03-20T09:41:18.709Z,25.00
2018-03-20T09:43:59.578Z,26.70
2018-03-20T09:46:38.671Z,21.97
2018-03-20T09:49:09.766Z,19.57
2018-03-20T09:51:40.706Z,22.37
2018-03-20T09:54:11.959Z,21.80
2018-03-20T09:56:42.973Z,20.30
2018-03-20T09:59:13.363Z,16.93
2018-03-20T10:01:44.098Z,19.67
2018-03-20T10:04:14.265Z,17.43
2018-03-20T10:06:45.787Z,17.90
2018-03-20T10:09:16.182Z,15.23
2018-03-20T10:11:46.423Z,14.70
2018-03-20T10:14:16.459Z,13.40
2018-03-20T10:16:46.948Z,12.83
2018-03-20T10:19:17.168Z,13.23
2018-03-20T10:21:47.683Z,13.13
2018-03-20T10:24:18.240Z,12.97
2018-03-20T10:26:48.412Z,14.30
2018-03-20T10:29:19.827Z,12.40
2018-03-20T10:31:50.211Z,13.77
2018-03-20T10:34:21.489Z,14.83
2018-03-20T10:36:51.614Z,12.60
2018-03-20T10:39:21.694Z,11.00
2018-03-20T10:41:52.263Z,10.57
2018-03-20T10:44:22.620Z,9.70
2018-03-20T10:46:52.812Z,10.50
2018-03-20T10:49:23.215Z,9.03
2018-03-20T10:51:55.872Z,8.90
2018-03-20T10:54:26.626Z,9.23
2018-03-20T10:57:37.393Z,9.53
2018-03-20T11:00:14.286Z,10.10
2018-03-20T11:02:48.517Z,7.67
2018-03-20T11:05:18.698Z,6.90
2018-03-20T11:07:48.817Z,7.23
2018-03-20T11:10:23.762Z,11.37
2018-03-20T11:12:54.452Z,7.50
2018-03-20T11:15:25.095Z,6.47
2018-03-20T11:18:09.186Z,7.20
2018-03-20T11:20:44.524Z,6.53
2018-03-20T11:23:15.596Z,5.90
2018-03-20T11:25:45.498Z,4.13
2018-03-20T11:28:15.691Z,4.00
2018-03-20T11:30:45.673Z,5.03
2018-03-20T11:33:16.386Z,4.47
2018-03-20T11:35:47.163Z,4.33
2018-03-20T11:38:17.525Z,4.57
2018-03-20T11:40:48.029Z,4.17
2018-03-20T11:43:18.560Z,4.70
2018-03-20T11:45:49.496Z,4.83
2018-03-20T11:48:21.249Z,3.80
2018-03-20T11:50:51.939Z,3.87
2018-03-20T11:53:22.619Z,5.30
2018-03-20T11:55:53.264Z,7.00
2018-03-20T11:58:30.876Z,4.70
2018-03-20T12:01:12.475Z,3.87
2018-03-20T12:03:43.880Z,9.70
2018-03-20T12:06:14.644Z,4.90
2018-03-20T12:08:52.391Z,3.67
2018-03-20T12:11:24.056Z,4.00
2018-03-20T12:13:55.946Z,5.07
2018-03-20T12:16:26.188Z,7.20
2018-03-20T12:18:56.650Z,3.63
2018-03-20T12:21:28.366Z,5.97
2018-03-20T12:24:00.455Z,8.37
2018-03-20T12:26:30.741Z,4.33
2018-03-20T12:29:03.425Z,4.57
2018-03-20T12:31:34.661Z,4.17
2018-03-20T12:34:08.614Z,3.60
2018-03-20T12:36:46.830Z,5.00
2018-03-20T12:39:22.345Z,4.70
2018-03-20T12:41:52.756Z,9.10
2018-03-20T12:44:22.769Z,2.70
2018-03-20T12:46:53.817Z,3.40
2018-03-20T12:49:25.512Z,6.13
2018-03-20T12:51:56.487Z,9.17
2018-03-20T12:54:27.205Z,4.37
2018-03-20T12:56:58.055Z,3.50
2018-03-20T12:59:35.111Z,2.40
2018-03-20T13:02:05.743Z,3.30
2018-03-20T13:04:38.856Z,2.63
2018-03-20T13:07:09.258Z,3.63
2018-03-20T13:09:41.517Z,4.20
2018-03-20T13:12:12.486Z,3.10
2018-03-20T13:14:42.788Z,2.70
2018-03-20T13:17:15.079Z,5.50
2018-03-20T13:19:46.480Z,2.70
2018-03-20T13:22:16.995Z,2.70
2018-03-20T13:24:47.542Z,2.80
2018-03-20T13:27:18.538Z,2.43
2018-03-20T13:29:56.586Z,5.33
2018-03-20T13:32:27.445Z,5.50
2018-03-20T13:34:57.946Z,3.80
2018-03-20T13:38:01.773Z,3.67
2018-03-20T13:40:42.693Z,2.83
2018-03-20T13:43:14.606Z,2.53
2018-03-20T13:45:46.621Z,2.50
2018-03-20T13:48:28.105Z,2.33
2018-03-20T13:51:12.581Z,3.33
2018-03-20T13:53:44.964Z,4.83
2018-03-20T13:56:16.160Z,2.20
2018-03-20T13:58:46.938Z,2.70
2018-03-20T14:01:17.466Z,4.17
2018-03-20T14:03:47.766Z,4.57
2018-03-20T14:06:18.757Z,27.17
2018-03-20T14:08:49.566Z,3.73
2018-03-20T14:11:20.034Z,2.07
2018-03-20T14:13:50.262Z,4.50
2018-03-20T14:16:21.960Z,2.27
2018-03-20T14:18:54.848Z,2.60
2018-03-20T14:21:25.496Z,2.90
2018-03-20T14:23:57.683Z,5.17
2018-03-20T14:26:28.205Z,4.83
2018-03-20T14:29:00.171Z,2.60
2018-03-20T14:31:30.329Z,1.90
2018-03-20T14:34:01.338Z,3.03
2018-03-20T14:36:32.066Z,5.97
2018-03-20T14:39:03.445Z,29.40
2018-03-20T14:41:33.984Z,3.93
2018-03-20T14:44:04.750Z,2.70
2018-03-20T14:46:39.356Z,4.10
2018-03-20T14:49:12.977Z,4.40
2018-03-20T14:51:43.831Z,7.50
2018-03-20T14:54:24.972Z,3.20
2018-03-20T14:57:01.298Z,4.00
2018-03-20T14:59:33.853Z,6.40
2018-03-20T15:02:04.042Z,2.77
2018-03-20T15:04:34.980Z,7.13
2018-03-20T15:07:15.104Z,3.43
2018-03-20T15:09:49.046Z,2.20
2018-03-20T15:12:19.228Z,2.57
2018-03-20T15:14:49.514Z,2.50
2018-03-20T15:17:19.804Z,3.77
2018-03-20T15:19:51.376Z,3.00
2018-03-20T15:22:21.892Z,16.00
2018-03-20T15:24:52.027Z,2.63
2018-03-20T15:27:22.158Z,3.10
2018-03-20T15:29:52.438Z,2.77
2018-03-20T15:32:23.122Z,2.70
2018-03-20T15:34:53.772Z,3.13
2018-03-20T15:37:25.455Z,2.70
2018-03-20T15:39:55.550Z,3.70
2018-03-20T15:42:26.763Z,3.00
2018-03-20T15:44:57.383Z,1.40
2018-03-20T15:47:27.737Z,5.80
2018-03-20T15:49:58.248Z,3.10
2018-03-20T15:52:29.030Z,4.20
2018-03-20T15:54:59.360Z,3.50
2018-03-20T15:57:29.689Z,3.33
2018-03-20T16:00:10.113Z,4.40
2018-03-20T16:02:41.394Z,4.10
2018-03-20T16:05:11.434Z,3.33
2018-03-20T16:07:46.519Z,2.87
2018-03-20T16:10:17.078Z,2.80
2018-03-20T16:12:47.247Z,3.23
2018-03-20T16:15:18.911Z,4.10
2018-03-20T16:17:49.196Z,2.60
2018-03-20T16:20:19.953Z,4.80
2018-03-20T16:22:55.516Z,4.03
2018-03-20T16:25:31.848Z,3.00
2018-03-20T16:28:10.868Z,3.53
2018-03-20T16:30:41.292Z,2.60
2018-03-20T16:33:12.344Z,3.10
2018-03-20T16:35:46.961Z,2.03
2018-03-20T16:38:34.199Z,3.03
2018-03-20T16:41:18.744Z,3.50
2018-03-20T16:43:49.174Z,3.93
2018-03-20T16:46:20.205Z,3.03
2018-03-20T16:48:50.649Z,4.57
2018-03-20T16:51:21.567Z,2.50
2018-03-20T16:53:51.901Z,2.17
2018-03-20T16:56:23.804Z,3.10
2018-03-20T16:58:55.155Z,4.10
2018-03-20T17:01:25.327Z,2.77
2018-03-20T17:03:56.205Z,2.70
2018-03-20T17:06:26.372Z,2.60
2018-03-20T17:08:56.502Z,4.57
2018-03-20T17:11:27.636Z,3.43
2018-03-20T17:13:58.617Z,5.50
2018-03-20T17:16:28.672Z,4.70
2018-03-20T17:18:59.976Z,6.63
2018-03-20T17:21:31.507Z,3.93
2018-03-20T17:24:02.858Z,9.20
2018-03-20T17:26:39.227Z,3.00
2018-03-20T17:29:16.614Z,2.87
2018-03-20T17:31:49.614Z,3.33
2018-03-20T17:34:28.314Z,4.47
2018-03-20T17:37:09.342Z,4.85
2018-03-20T17:39:40.159Z,3.47
2018-03-20T17:42:16.409Z,26.87
2018-03-20T17:44:47.815Z,14.57
2018-03-20T17:47:18.438Z,7.70
2018-03-20T17:49:48.508Z,3.67
2018-03-20T17:52:19.338Z,3.77
2018-03-20T17:54:50.204Z,4.40
2018-03-20T17:57:24.225Z,3.17
2018-03-20T17:59:54.484Z,4.23
2018-03-20T18:02:25.139Z,4.23
2018-03-20T18:04:56.028Z,6.00
2018-03-20T18:07:26.378Z,6.17
2018-03-20T18:09:57.434Z,5.00
2018-03-20T18:12:32.343Z,7.00
2018-03-20T18:15:14.388Z,6.60
2018-03-20T18:17:44.940Z,4.70
2018-03-20T18:20:21.865Z,6.50
2018-03-20T18:22:56.039Z,3.80
2018-03-20T18:25:29.304Z,5.10
2018-03-20T18:27:59.432Z,6.10
2018-03-20T18:30:34.701Z,9.43
2018-03-20T18:33:08.588Z,5.07
2018-03-20T18:35:39.538Z,4.93
2018-03-20T18:38:11.097Z,6.03
2018-03-20T18:40:41.888Z,6.43
2018-03-20T18:43:13.661Z,6.30
2018-03-20T18:45:51.447Z,5.77
2018-03-20T18:48:27.290Z,9.47
2018-03-20T18:51:07.287Z,6.23
2018-03-20T18:53:44.101Z,9.27
2018-03-20T18:56:14.785Z,6.60
2018-03-20T18:58:45.000Z,8.53
2018-03-20T19:01:15.538Z,7.47
2018-03-20T19:03:47.679Z,5.63
2018-03-20T19:06:18.860Z,12.13
2018-03-20T19:08:49.569Z,15.63
2018-03-20T19:11:21.950Z,5.90
2018-03-20T19:13:52.869Z,5.50
2018-03-20T19:16:23.540Z,7.47
2018-03-20T19:18:54.194Z,3.73
2018-03-20T19:21:28.768Z,5.60
2018-03-20T19:24:00.046Z,5.30
2018-03-20T19:26:33.811Z,3.93
2018-03-20T19:29:05.750Z,5.80
2018-03-20T19:31:35.889Z,5.37
2018-03-20T19:34:05.914Z,4.57
2018-03-20T19:36:36.090Z,4.30
2018-03-20T19:39:08.812Z,8.87
2018-03-20T19:41:39.103Z,6.17
2018-03-20T19:44:16.943Z,4.67
2018-03-20T19:46:52.826Z,7.50
2018-03-20T19:49:26.099Z,6.90
2018-03-20T19:51:57.276Z,7.27
2018-03-20T19:54:32.945Z,9.50
2018-03-20T19:57:09.064Z,22.33
2018-03-20T19:59:50.351Z,41.37
2018-03-20T20:02:36.871Z,8.60
2018-03-20T20:05:22.099Z,14.20
2018-03-20T20:08:05.627Z,6.60
2018-03-20T20:10:50.357Z,7.70
2018-03-20T20:13:35.642Z,6.20
2018-03-20T20:16:05.831Z,6.23
2018-03-20T20:18:39.210Z,8.57
2018-03-20T20:24:00.340Z,6.97
2018-03-20T20:26:43.946Z,4.13
2018-03-20T20:29:25.285Z,5.77
2018-03-20T20:32:09.998Z,7.07
2018-03-20T20:34:41.186Z,7.27
2018-03-20T20:37:13.956Z,8.53
2018-03-20T20:39:46.812Z,6.43
2018-03-20T20:42:19.736Z,5.20
2018-03-20T20:44:53.190Z,6.90
2018-03-20T20:47:27.887Z,5.17
2018-03-20T20:50:03.545Z,6.80
2018-03-20T20:52:35.166Z,4.73
2018-03-20T20:55:14.300Z,5.73
2018-03-20T20:57:46.732Z,6.03
2018-03-20T21:00:19.662Z,5.43
2018-03-20T21:02:52.019Z,7.97
2018-03-20T21:05:22.096Z,8.67
2018-03-20T21:07:53.134Z,6.70
2018-03-20T21:10:30.515Z,9.70
2018-03-20T21:13:14.813Z,6.93
2018-03-20T21:15:46.300Z,8.00
2018-03-20T21:18:16.815Z,6.33
2018-03-20T21:20:52.367Z,5.70
2018-03-20T21:23:25.123Z,6.27
2018-03-20T21:25:59.663Z,7.90
2018-03-20T21:28:54.062Z,5.67
2018-03-20T21:31:32.974Z,4.53
2018-03-20T21:34:05.244Z,5.87
2018-03-20T21:36:37.794Z,5.90
2018-03-20T21:39:14.218Z,5.80
2018-03-20T21:41:57.725Z,8.77
2018-03-20T21:44:29.112Z,6.60
2018-03-20T21:47:00.219Z,6.13
2018-03-20T21:49:33.380Z,7.30
2018-03-20T21:52:05.018Z,6.77
2018-03-20T21:54:36.312Z,6.43
2018-03-20T21:57:17.988Z,5.53
2018-03-20T21:59:56.283Z,7.30
2018-03-20T22:02:26.976Z,6.57
2018-03-20T22:04:58.872Z,6.30
2018-03-20T22:07:33.649Z,7.57
2018-03-20T22:10:06.255Z,6.33
2018-03-20T22:13:03.445Z,14.03
2018-03-20T22:15:33.802Z,6.30
2018-03-20T22:18:16.070Z,5.70
2018-03-20T22:20:51.477Z,6.20
2018-03-20T22:23:24.467Z,6.40
2018-03-20T22:25:58.342Z,5.00
2018-03-20T22:28:33.179Z,6.37
2018-03-20T22:31:12.905Z,5.47
2018-03-20T22:33:43.428Z,5.10
2018-03-20T22:36:13.691Z,6.03
2018-03-20T22:38:45.803Z,7.20
2018-03-20T22:41:15.931Z,5.50
2018-03-20T22:43:46.102Z,6.32
2018-03-20T22:46:18.111Z,7.20
2018-03-20T22:48:48.683Z,5.47
2018-03-20T22:51:19.992Z,5.33
2018-03-20T22:53:53.351Z,6.00
2018-03-20T22:56:27.743Z,9.80
2018-03-20T22:59:02.820Z,9.43
2018-03-20T23:01:33.684Z,7.40
2018-03-20T23:04:04.621Z,10.60
2018-03-20T23:06:36.311Z,5.60
2018-03-20T23:09:13.980Z,7.18
2018-03-20T23:11:44.272Z,5.97
2018-03-20T23:14:14.413Z,5.07
2018-03-20T23:16:44.791Z,5.80
2018-03-20T23:19:16.762Z,4.75
2018-03-20T23:21:47.563Z,8.00
2018-03-20T23:24:17.768Z,5.80
2018-03-20T23:26:48.210Z,8.07
2018-03-20T23:29:18.925Z,5.47
2018-03-20T23:31:49.778Z,7.05
2018-03-20T23:34:30.486Z,6.82
2018-03-20T23:37:07.906Z,7.35
2018-03-20T23:39:41.484Z,7.10
2018-03-20T23:42:12.371Z,7.62
2018-03-20T23:44:42.735Z,5.55
2018-03-20T23:47:13.251Z,10.20
2018-03-20T23:49:43.987Z,7.55
2018-03-20T23:52:14.220Z,9.32
2018-03-20T23:54:45.129Z,7.15
2018-03-20T23:57:16.564Z,7.30
2018-03-20T23:59:51.663Z,6.37
